createdAt,value
2023-04-22T00:00:26.929Z,11.80
2023-04-22T00:10:30.073Z,12.70
2023-04-22T00:20:36.408Z,15.23
2023-04-22T00:30:39.676Z,15.30
2023-04-22T00:40:44.273Z,15.47
2023-04-22T00:50:47.440Z,13.13
2023-04-22T01:00:52.862Z,18.10
2023-04-22T01:10:56.624Z,14.50
2023-04-22T01:21:02.281Z,15.37
2023-04-22T01:31:07.093Z,15.10
2023-04-22T01:41:10.362Z,12.83
2023-04-22T01:51:14.974Z,9.40
2023-04-22T02:01:20.585Z,8.63
2023-04-22T02:11:25.140Z,10.07
2023-04-22T02:21:31.877Z,11.00
2023-04-22T02:31:36.448Z,10.30
2023-04-22T02:41:40.236Z,9.77
2023-04-22T02:51:44.714Z,9.77
2023-04-22T03:01:48.099Z,8.57
2023-04-22T03:12:04.336Z,8.30
2023-04-22T03:22:07.744Z,9.87
2023-04-22T03:32:12.514Z,9.70
2023-04-22T03:42:16.209Z,9.90
2023-04-22T03:52:22.035Z,9.20
2023-04-22T04:02:33.364Z,9.17
2023-04-22T04:12:39.414Z,8.70
2023-04-22T04:22:42.912Z,6.67
2023-04-22T04:32:48.316Z,5.50
2023-04-22T04:42:55.755Z,5.97
2023-04-22T04:53:04.751Z,5.20
2023-04-22T05:03:15.037Z,4.80
2023-04-22T05:13:19.819Z,5.20
2023-04-22T05:23:25.026Z,5.20
2023-04-22T05:33:32.189Z,4.87
2023-04-22T05:43:35.666Z,5.60
2023-04-22T05:53:48.709Z,4.50
2023-04-22T06:03:52.177Z,4.50
2023-04-22T06:13:57.191Z,4.10
2023-04-22T06:24:01.292Z,4.40
2023-04-22T06:34:06.067Z,4.30
2023-04-22T06:44:09.721Z,3.83
2023-04-22T06:54:49.105Z,3.67
2023-04-22T07:04:52.413Z,3.90
2023-04-22T07:14:57.206Z,4.10
2023-04-22T07:25:00.410Z,4.43
2023-04-22T07:35:05.400Z,4.23
2023-04-22T07:45:09.565Z,4.37
2023-04-22T07:55:14.108Z,4.22
2023-04-22T08:05:17.433Z,3.85
2023-04-22T08:15:22.051Z,4.97
2023-04-22T08:25:25.236Z,4.60
2023-04-22T08:35:30.025Z,4.72
2023-04-22T08:45:34.120Z,4.43
2023-04-22T08:55:41.108Z,4.40
2023-04-22T09:05:44.652Z,4.28
2023-04-22T09:15:49.191Z,4.80
2023-04-22T09:25:52.387Z,4.30
2023-04-22T09:35:57.482Z,4.53
2023-04-22T09:46:01.274Z,4.78
2023-04-22T09:56:06.096Z,5.65
2023-04-22T10:06:09.496Z,5.47
2023-04-22T10:16:14.804Z,5.13
2023-04-22T10:26:42.697Z,3.80
2023-04-22T10:36:58.526Z,4.13
2023-04-22T10:47:02.229Z,4.38
2023-04-22T10:57:07.809Z,4.03
2023-04-22T11:07:15.744Z,4.28
2023-04-22T11:17:20.832Z,4.28
2023-04-22T11:27:26.641Z,3.80
2023-04-22T11:37:31.542Z,2.70
2023-04-22T11:47:35.953Z,3.85
2023-04-22T11:57:40.924Z,3.58
2023-04-22T12:07:44.460Z,3.40
2023-04-22T12:17:51.408Z,3.58
2023-04-22T12:27:54.625Z,3.75
2023-04-22T12:37:59.789Z,5.47
2023-04-22T12:48:03.160Z,6.88
2023-04-22T12:58:07.750Z,6.70
2023-04-22T13:08:10.897Z,6.80
2023-04-22T13:18:15.933Z,6.97
2023-04-22T13:28:19.351Z,6.90
2023-04-22T13:38:23.963Z,8.68
2023-04-22T13:48:27.537Z,8.45
2023-04-22T13:58:32.254Z,7.22
2023-04-22T14:08:35.447Z,7.85
2023-04-22T14:18:40.949Z,7.53
2023-04-22T14:28:44.196Z,8.50
2023-04-22T14:38:48.709Z,9.02
2023-04-22T14:48:51.836Z,9.10
2023-04-22T14:58:56.305Z,7.47
2023-04-22T15:08:59.454Z,8.48
2023-04-22T15:19:03.954Z,7.15
2023-04-22T15:29:07.452Z,6.90
2023-04-22T15:39:12.858Z,7.03
2023-04-22T15:49:16.675Z,7.22
2023-04-22T15:59:21.216Z,5.00
2023-04-22T16:09:24.532Z,4.78
2023-04-22T16:19:29.126Z,4.30
2023-04-22T16:29:32.309Z,5.82
2023-04-22T16:39:36.901Z,4.10
2023-04-22T16:49:40.182Z,4.20
2023-04-22T16:59:44.984Z,4.28
2023-04-22T17:09:48.872Z,4.15
2023-04-22T17:19:53.388Z,4.57
2023-04-22T17:29:56.608Z,4.78
2023-04-22T17:40:01.186Z,4.40
2023-04-22T17:50:04.592Z,5.72
2023-04-22T18:00:11.022Z,5.88
2023-04-22T18:10:15.733Z,7.82
2023-04-22T18:20:20.783Z,8.13
2023-04-22T18:30:24.424Z,6.75
2023-04-22T18:40:28.993Z,6.88
2023-04-22T18:50:32.169Z,6.97
2023-04-22T19:00:36.815Z,8.95
2023-04-22T19:10:40.465Z,8.93
2023-04-22T19:20:46.156Z,8.65
2023-04-22T19:30:49.531Z,9.13
2023-04-22T19:40:54.740Z,8.75
2023-04-22T19:50:58.454Z,7.45
2023-04-22T20:01:04.182Z,6.65
2023-04-22T20:11:07.378Z,6.93
2023-04-22T20:21:11.961Z,7.10
2023-04-22T20:31:18.303Z,7.88
2023-04-22T20:41:25.430Z,7.70
2023-04-22T20:51:29.595Z,7.18
2023-04-22T21:01:34.262Z,7.43
2023-04-22T21:11:38.049Z,7.50
2023-04-22T21:21:43.932Z,7.88
2023-04-22T21:31:57.628Z,8.43
2023-04-22T21:42:09.913Z,8.40
2023-04-22T21:52:13.095Z,8.23
2023-04-22T22:02:17.828Z,8.88
2023-04-22T22:12:23.295Z,9.73
2023-04-22T22:22:27.898Z,9.52
2023-04-22T22:32:31.108Z,8.45
2023-04-22T22:42:36.165Z,9.25
2023-04-22T22:52:39.446Z,10.18
2023-04-22T23:02:44.146Z,9.60
2023-04-22T23:12:47.472Z,10.48
2023-04-22T23:22:53.024Z,9.98
2023-04-22T23:32:58.687Z,10.20
2023-04-22T23:43:03.258Z,11.38
2023-04-22T23:53:06.665Z,11.05
